createdAt,value
2018-09-09T00:00:50.597Z,93806.83
2018-09-09T00:03:19.141Z,93806.73
2018-09-09T00:05:47.759Z,93808.77
2018-09-09T00:08:16.109Z,93809.91
2018-09-09T00:10:44.226Z,93807.25
2018-09-09T00:13:12.285Z,93805.56
2018-09-09T00:15:40.412Z,93806.39
2018-09-09T00:18:08.572Z,93806.81
2018-09-09T00:20:36.643Z,93807.55
2018-09-09T00:23:04.786Z,93812.03
2018-09-09T00:25:32.974Z,93810.52
2018-09-09T00:28:01.185Z,93810.80
2018-09-09T00:30:29.252Z,93816.78
2018-09-09T00:32:57.276Z,93808.39
2018-09-09T00:35:25.487Z,93806.36
2018-09-09T00:37:53.736Z,93803.21
2018-09-09T00:40:21.989Z,93802.83
2018-09-09T00:42:50.041Z,93802.10
2018-09-09T00:45:18.260Z,93804.36
2018-09-09T00:47:46.577Z,93803.56
2018-09-09T00:50:20.295Z,93808.38
2018-09-09T00:52:53.877Z,93806.59
2018-09-09T00:55:21.884Z,93813.14
2018-09-09T00:57:50.016Z,93806.39
2018-09-09T01:01:24.344Z,93814.73
2018-09-09T01:03:52.400Z,93814.32
2018-09-09T01:06:20.502Z,93809.48
2018-09-09T01:08:49.764Z,93806.41
2018-09-09T01:11:17.842Z,93804.05
2018-09-09T01:13:45.921Z,93801.88
2018-09-09T01:16:14.064Z,93802.45
2018-09-09T01:18:42.184Z,93806.94
2018-09-09T01:21:10.288Z,93808.62
2018-09-09T01:23:38.347Z,93809.13
2018-09-09T01:26:06.411Z,93812.64
2018-09-09T01:28:34.596Z,93808.95
2018-09-09T01:31:02.528Z,93812.89
2018-09-09T01:33:30.542Z,93809.61
2018-09-09T01:35:58.569Z,93805.92
2018-09-09T01:38:26.703Z,93811.00
2018-09-09T01:40:54.756Z,93811.50
2018-09-09T01:43:22.765Z,93801.78
2018-09-09T01:45:50.780Z,93803.82
2018-09-09T01:48:18.875Z,93796.92
2018-09-09T01:50:46.952Z,93797.56
2018-09-09T01:53:15.055Z,93804.67
2018-09-09T01:55:43.194Z,93798.88
2018-09-09T01:58:11.325Z,93803.78
2018-09-09T02:00:39.364Z,93803.68
2018-09-09T02:03:07.457Z,93809.41
2018-09-09T02:05:35.432Z,93809.03
2018-09-09T02:08:03.454Z,93803.44
2018-09-09T02:10:31.458Z,93808.58
2018-09-09T02:12:59.574Z,93806.47
2018-09-09T02:15:27.583Z,93807.70
2018-09-09T02:17:55.615Z,93811.21
2018-09-09T02:20:23.782Z,93807.80
2018-09-09T02:22:51.869Z,93811.61
2018-09-09T02:25:19.894Z,93816.00
2018-09-09T02:27:47.948Z,93817.11
2018-09-09T02:30:16.037Z,93819.63
2018-09-09T02:32:44.120Z,93815.98
2018-09-09T02:35:12.271Z,93815.27
2018-09-09T02:37:40.432Z,93817.61
2018-09-09T02:40:08.626Z,93817.69
2018-09-09T02:42:36.769Z,93813.52
2018-09-09T02:45:05.008Z,93808.77
2018-09-09T02:47:33.333Z,93808.60
2018-09-09T02:50:01.372Z,93808.44
2018-09-09T02:52:29.426Z,93819.19
2018-09-09T02:54:57.468Z,93820.05
2018-09-09T02:57:25.513Z,93814.10
2018-09-09T02:59:53.589Z,93814.28
2018-09-09T03:02:21.756Z,93811.42
2018-09-09T03:04:49.807Z,93809.58
2018-09-09T03:07:17.950Z,93814.43
2018-09-09T03:09:45.970Z,93812.83
2018-09-09T03:12:14.015Z,93813.77
2018-09-09T03:14:42.037Z,93812.01
2018-09-09T03:17:10.160Z,93810.23
2018-09-09T03:19:38.205Z,93804.76
2018-09-09T03:22:06.206Z,93808.11
2018-09-09T03:24:34.277Z,93808.94
2018-09-09T03:27:02.510Z,93807.75
2018-09-09T03:29:30.683Z,93809.22
2018-09-09T03:31:58.878Z,93818.13
2018-09-09T03:34:26.948Z,93814.99
2018-09-09T03:36:54.984Z,93809.05
2018-09-09T03:39:23.176Z,93814.09
2018-09-09T03:41:51.312Z,93810.84
2018-09-09T03:44:19.481Z,93810.45
2018-09-09T03:46:47.595Z,93820.13
2018-09-09T03:49:15.662Z,93818.91
2018-09-09T03:51:43.811Z,93817.21
2018-09-09T03:54:12.048Z,93818.21
2018-09-09T03:56:40.154Z,93817.78
2018-09-09T03:59:08.297Z,93828.50
2018-09-09T04:01:36.507Z,93828.20
2018-09-09T04:04:04.514Z,93821.89
2018-09-09T04:06:32.823Z,93825.24
2018-09-09T04:09:01.208Z,93826.37
2018-09-09T04:11:29.305Z,93834.23
2018-09-09T04:13:57.608Z,93837.40
2018-09-09T04:16:25.756Z,93838.31
2018-09-09T04:18:53.854Z,93837.66
2018-09-09T04:21:21.936Z,93834.59
2018-09-09T04:23:50.037Z,93835.37
2018-09-09T04:26:18.137Z,93844.55
2018-09-09T04:28:46.437Z,93845.77
2018-09-09T04:31:14.583Z,93845.00
2018-09-09T04:33:42.758Z,93848.41
2018-09-09T04:36:10.881Z,93855.34
2018-09-09T04:38:38.986Z,93852.38
2018-09-09T04:41:07.206Z,93848.26
2018-09-09T04:43:35.275Z,93848.81
2018-09-09T04:46:03.416Z,93852.03
2018-09-09T04:48:31.670Z,93853.58
2018-09-09T04:50:59.726Z,93854.98
2018-09-09T04:53:27.816Z,93857.27
2018-09-09T04:55:55.994Z,93855.85
2018-09-09T04:58:24.199Z,93857.86
2018-09-09T05:00:52.463Z,93860.40
2018-09-09T05:03:20.727Z,93863.16
2018-09-09T05:05:48.896Z,93866.69
2018-09-09T05:08:18.563Z,93864.66
2018-09-09T05:10:47.093Z,93871.91
2018-09-09T05:13:15.265Z,93871.77
2018-09-09T05:15:43.539Z,93872.43
2018-09-09T05:18:11.988Z,93875.52
2018-09-09T05:20:40.158Z,93879.50
2018-09-09T05:23:08.675Z,93882.03
2018-09-09T05:25:36.928Z,93879.53
2018-09-09T05:28:05.163Z,93882.58
2018-09-09T05:30:33.701Z,93888.00
2018-09-09T05:33:02.304Z,93887.41
2018-09-09T05:35:30.767Z,93890.94
2018-09-09T05:37:58.988Z,93892.78
2018-09-09T05:40:27.067Z,93895.91
2018-09-09T05:42:55.231Z,93897.36
2018-09-09T05:45:23.450Z,93894.00
2018-09-09T05:47:51.743Z,93892.17
2018-09-09T05:50:19.966Z,93900.11
2018-09-09T05:52:49.154Z,93897.39
2018-09-09T05:55:17.726Z,93896.25
2018-09-09T05:57:47.112Z,93896.81
2018-09-09T06:00:16.666Z,93898.84
2018-09-09T06:02:45.372Z,93903.63
2018-09-09T06:05:15.615Z,93903.24
2018-09-09T06:07:44.735Z,93900.00
2018-09-09T06:10:14.275Z,93900.88
2018-09-09T06:12:43.312Z,93905.45
2018-09-09T06:15:12.361Z,93910.34
2018-09-09T06:17:41.859Z,93908.14
2018-09-09T06:20:10.355Z,93906.65
2018-09-09T06:22:41.035Z,93914.09
2018-09-09T06:25:10.554Z,93909.67
2018-09-09T06:27:41.358Z,93912.09
2018-09-09T06:30:10.761Z,93911.39
2018-09-09T06:32:40.190Z,93907.17
2018-09-09T06:35:09.202Z,93912.14
2018-09-09T06:37:38.811Z,93915.05
2018-09-09T06:40:08.319Z,93911.45
2018-09-09T06:42:38.525Z,93916.63
2018-09-09T06:45:08.575Z,93922.64
2018-09-09T06:47:39.428Z,93918.63
2018-09-09T06:50:08.108Z,93925.09
2018-09-09T06:52:38.078Z,93927.27
2018-09-09T06:55:08.883Z,93920.70
2018-09-09T06:57:37.827Z,93923.59
2018-09-09T07:00:06.481Z,93927.97
2018-09-09T07:02:35.157Z,93927.69
2018-09-09T07:05:03.526Z,93929.28
2018-09-09T07:07:33.276Z,93931.16
2018-09-09T07:10:01.702Z,93926.56
2018-09-09T07:12:30.337Z,93921.41
2018-09-09T07:15:00.804Z,93926.41
2018-09-09T07:17:29.674Z,93926.36
2018-09-09T07:19:59.030Z,93925.25
2018-09-09T07:22:27.841Z,93934.21
2018-09-09T07:24:57.170Z,93932.06
2018-09-09T07:27:26.057Z,93930.22
2018-09-09T07:29:54.796Z,93929.68
2018-09-09T07:32:23.283Z,93929.42
2018-09-09T07:34:52.037Z,93920.95
2018-09-09T07:37:21.341Z,93922.86
2018-09-09T07:39:50.246Z,93929.48
2018-09-09T07:42:18.735Z,93928.75
2018-09-09T07:44:49.282Z,93921.57
2018-09-09T07:47:17.866Z,93918.40
2018-09-09T07:49:46.461Z,93916.79
2018-09-09T07:52:15.048Z,93915.75
2018-09-09T07:54:43.424Z,93919.06
2018-09-09T07:57:11.912Z,93920.31
2018-09-09T07:59:40.903Z,93915.59
2018-09-09T08:02:11.862Z,93915.36
2018-09-09T08:04:41.225Z,93912.70
2018-09-09T08:07:09.656Z,93913.17
2018-09-09T08:09:38.413Z,93912.60
2018-09-09T08:12:06.936Z,93907.28
2018-09-09T08:14:36.179Z,93908.62
2018-09-09T08:17:06.101Z,93901.30
2018-09-09T08:19:34.982Z,93899.91
2018-09-09T08:22:03.840Z,93899.29
2018-09-09T08:24:32.937Z,93899.72
2018-09-09T08:27:04.239Z,93904.37
2018-09-09T08:29:34.641Z,93897.08
2018-09-09T08:32:03.460Z,93901.58
2018-09-09T08:34:32.135Z,93897.77
2018-09-09T08:37:03.177Z,93895.16
2018-09-09T08:39:32.050Z,93900.84
2018-09-09T08:42:01.476Z,93900.56
2018-09-09T08:44:30.849Z,93895.47
2018-09-09T08:47:01.151Z,93891.99
2018-09-09T08:49:32.944Z,93890.60
2018-09-09T08:52:01.479Z,93892.66
2018-09-09T08:54:30.484Z,93889.47
2018-09-09T08:57:03.580Z,93891.84
2018-09-09T08:59:33.358Z,93892.66
2018-09-09T09:02:02.310Z,93885.38
2018-09-09T09:04:30.975Z,93876.55
2018-09-09T09:07:01.932Z,93867.54
2018-09-09T09:09:31.722Z,93868.92
2018-09-09T09:12:08.364Z,93867.45
2018-09-09T09:14:36.923Z,93877.10
2018-09-09T09:17:07.213Z,93873.13
2018-09-09T09:19:36.547Z,93871.16
2018-09-09T09:22:06.019Z,93866.80
2018-09-09T09:24:35.029Z,93861.49
2018-09-09T09:27:03.702Z,93863.41
2018-09-09T09:29:39.472Z,93860.59
2018-09-09T09:32:09.032Z,93858.05
2018-09-09T09:34:38.963Z,93857.19
2018-09-09T09:37:08.663Z,93854.22
2018-09-09T09:39:37.319Z,93848.80
2018-09-09T09:42:06.028Z,93850.91
2018-09-09T09:44:34.588Z,93843.71
2018-09-09T09:47:03.393Z,93838.33
2018-09-09T09:49:32.035Z,93839.03
2018-09-09T09:52:00.997Z,93839.42
2018-09-09T09:54:29.650Z,93841.91
2018-09-09T09:56:58.280Z,93832.69
2018-09-09T09:59:26.872Z,93829.20
2018-09-09T10:01:59.250Z,93834.01
2018-09-09T10:04:28.110Z,93830.48
2018-09-09T10:06:56.992Z,93833.83
2018-09-09T10:09:27.617Z,93827.25
2018-09-09T10:11:59.122Z,93827.30
2018-09-09T10:14:27.691Z,93833.38
2018-09-09T10:16:56.495Z,93827.59
2018-09-09T10:19:25.180Z,93834.25
2018-09-09T10:21:53.670Z,93817.53
2018-09-09T10:24:22.470Z,93818.75
2018-09-09T10:26:52.491Z,93813.55
2018-09-09T10:29:21.825Z,93804.34
2018-09-09T10:31:50.413Z,93816.98
2018-09-09T10:34:18.892Z,93814.56
2018-09-09T10:36:48.349Z,93818.01
2018-09-09T10:39:17.077Z,93812.92
2018-09-09T10:41:47.005Z,93810.83
2018-09-09T10:44:15.710Z,93805.09
2018-09-09T10:46:44.169Z,93798.06
2018-09-09T10:49:12.835Z,93793.12
2018-09-09T10:51:41.532Z,93782.44
2018-09-09T10:54:10.038Z,93779.77
2018-09-09T10:56:38.613Z,93783.94
2018-09-09T10:59:06.964Z,93789.71
2018-09-09T11:01:35.236Z,93786.58
2018-09-09T11:04:03.756Z,93779.10
2018-09-09T11:06:32.890Z,93779.16
2018-09-09T11:09:03.347Z,93776.06
2018-09-09T11:11:33.973Z,93782.37
2018-09-09T11:14:03.429Z,93767.63
2018-09-09T11:16:32.587Z,93774.69
2018-09-09T11:19:01.314Z,93769.48
2018-09-09T11:21:29.814Z,93767.39
2018-09-09T11:23:58.966Z,93763.91
2018-09-09T11:26:27.777Z,93757.31
2018-09-09T11:28:56.006Z,93757.27
2018-09-09T11:31:24.677Z,93768.08
2018-09-09T11:33:53.471Z,93766.88
2018-09-09T11:36:23.114Z,93758.52
2018-09-09T11:38:52.032Z,93753.49
2018-09-09T11:41:20.732Z,93748.66
2018-09-09T11:43:49.167Z,93752.59
2018-09-09T11:46:17.636Z,93746.87
2018-09-09T11:48:46.118Z,93752.27
2018-09-09T11:51:15.835Z,93745.43
2018-09-09T11:53:44.321Z,93739.77
2018-09-09T11:56:13.423Z,93736.89
2018-09-09T11:58:44.616Z,93724.56
2018-09-09T12:01:13.539Z,93720.09
2018-09-09T12:03:42.642Z,93722.00
2018-09-09T12:06:11.152Z,93723.86
2018-09-09T12:08:40.355Z,93724.48
2018-09-09T12:11:08.723Z,93715.30
2018-09-09T12:13:37.229Z,93714.78
2018-09-09T12:16:05.603Z,93723.59
2018-09-09T12:18:34.063Z,93716.06
2018-09-09T12:21:02.797Z,93717.59
2018-09-09T12:23:31.288Z,93715.39
2018-09-09T12:26:00.790Z,93708.13
2018-09-09T12:28:29.841Z,93703.59
2018-09-09T12:30:59.840Z,93713.42
2018-09-09T12:33:29.152Z,93715.02
2018-09-09T12:35:58.375Z,93713.95
2018-09-09T12:38:27.207Z,93709.48
2018-09-09T12:40:56.255Z,93707.45
2018-09-09T12:43:30.882Z,93708.45
2018-09-09T12:46:05.290Z,93708.12
2018-09-09T12:48:39.312Z,93705.90
2018-09-09T12:51:09.010Z,93703.09
2018-09-09T12:53:38.347Z,93698.20
2018-09-09T12:56:07.233Z,93695.15
2018-09-09T12:58:36.106Z,93690.34
2018-09-09T13:01:04.520Z,93692.53
2018-09-09T13:03:33.154Z,93692.24
2018-09-09T13:06:02.125Z,93693.48
2018-09-09T13:08:30.922Z,93694.20
2018-09-09T13:10:59.502Z,93687.23
2018-09-09T13:13:28.305Z,93692.43
2018-09-09T13:16:01.317Z,93690.84
2018-09-09T13:18:35.708Z,93688.76
2018-09-09T13:21:08.014Z,93698.48
2018-09-09T13:23:38.710Z,93696.45
2018-09-09T13:26:07.136Z,93696.72
2018-09-09T13:28:35.657Z,93693.98
2018-09-09T13:31:04.232Z,93690.50
2018-09-09T13:33:32.462Z,93704.62
2018-09-09T13:36:00.752Z,93698.73
2018-09-09T13:38:31.497Z,93703.62
2018-09-09T13:41:00.134Z,93706.02
2018-09-09T13:43:29.226Z,93702.66
2018-09-09T13:45:57.681Z,93702.66
2018-09-09T13:48:26.141Z,93696.91
2018-09-09T13:50:54.430Z,93697.76
2018-09-09T13:53:22.876Z,93704.41
2018-09-09T13:55:51.454Z,93705.39
2018-09-09T13:58:21.490Z,93712.41
2018-09-09T14:00:50.436Z,93714.20
2018-09-09T14:03:18.689Z,93706.55
2018-09-09T14:05:47.247Z,93711.63
2018-09-09T14:08:15.546Z,93709.11
2018-09-09T14:10:43.686Z,93704.75
2018-09-09T14:13:11.998Z,93706.20
2018-09-09T14:15:40.268Z,93712.58
2018-09-09T14:18:08.539Z,93712.34
2018-09-09T14:20:39.174Z,93718.35
2018-09-09T14:23:07.769Z,93722.78
2018-09-09T14:25:36.080Z,93721.19
2018-09-09T14:28:08.938Z,93723.32
2018-09-09T14:30:38.905Z,93722.34
2018-09-09T14:33:07.698Z,93730.00
2018-09-09T14:35:37.038Z,93724.30
2018-09-09T14:38:07.966Z,93731.88
2018-09-09T14:40:36.987Z,93728.45
2018-09-09T14:43:07.327Z,93731.13
2018-09-09T14:45:39.052Z,93737.83
2018-09-09T14:48:12.041Z,93745.00
2018-09-09T14:50:44.447Z,93741.31
2018-09-09T14:53:17.626Z,93750.60
2018-09-09T14:55:48.739Z,93742.14
2018-09-09T14:58:17.168Z,93739.36
2018-09-09T15:00:45.790Z,93738.20
2018-09-09T15:03:14.186Z,93740.01
2018-09-09T15:05:42.628Z,93738.88
2018-09-09T15:08:10.948Z,93747.30
2018-09-09T15:10:39.381Z,93753.78
2018-09-09T15:13:08.118Z,93764.38
2018-09-09T15:15:36.437Z,93753.45
2018-09-09T15:18:04.997Z,93757.27
2018-09-09T15:20:33.594Z,93760.39
2018-09-09T15:23:01.804Z,93762.39
2018-09-09T15:25:29.905Z,93765.71
2018-09-09T15:27:58.188Z,93765.21
2018-09-09T15:30:26.866Z,93764.70
2018-09-09T15:32:55.564Z,93766.19
2018-09-09T15:35:23.757Z,93764.78
2018-09-09T15:37:53.169Z,93768.61
2018-09-09T15:40:22.004Z,93761.98
2018-09-09T15:42:50.742Z,93767.09
2018-09-09T15:45:20.052Z,93767.59
2018-09-09T15:47:48.524Z,93764.57
2018-09-09T15:50:18.362Z,93766.55
2018-09-09T15:52:46.729Z,93767.34
2018-09-09T15:55:15.182Z,93756.48
2018-09-09T15:57:43.524Z,93771.35
2018-09-09T16:00:12.114Z,93758.13
2018-09-09T16:02:40.370Z,93757.78
2018-09-09T16:05:08.892Z,93761.31
2018-09-09T16:07:37.707Z,93761.86
2018-09-09T16:10:06.643Z,93762.23
2018-09-09T16:12:34.868Z,93761.01
2018-09-09T16:15:03.414Z,93760.34
2018-09-09T16:17:31.816Z,93771.65
2018-09-09T16:20:00.435Z,93772.67
2018-09-09T16:22:29.064Z,93770.66
2018-09-09T16:24:58.035Z,93770.17
2018-09-09T16:27:26.394Z,93773.68
2018-09-09T16:29:54.731Z,93777.89
2018-09-09T16:32:23.245Z,93784.62
2018-09-09T16:34:51.618Z,93778.71
2018-09-09T16:37:20.542Z,93784.38
2018-09-09T16:39:49.132Z,93790.80
2018-09-09T16:42:17.517Z,93785.38
2018-09-09T16:44:45.815Z,93787.38
2018-09-09T16:47:14.163Z,93788.30
2018-09-09T16:49:42.782Z,93782.52
2018-09-09T16:52:11.090Z,93787.23
2018-09-09T16:54:39.513Z,93783.26
2018-09-09T16:57:07.885Z,93793.03
2018-09-09T16:59:36.454Z,93791.63
2018-09-09T17:02:04.866Z,93800.46
2018-09-09T17:04:33.227Z,93798.33
2018-09-09T17:07:01.882Z,93794.92
2018-09-09T17:09:30.268Z,93800.12
2018-09-09T17:11:58.521Z,93804.01
2018-09-09T17:14:26.903Z,93804.83
2018-09-09T17:16:55.235Z,93806.89
2018-09-09T17:19:23.596Z,93812.64
2018-09-09T17:21:51.963Z,93817.47
2018-09-09T17:24:20.306Z,93824.09
2018-09-09T17:26:48.692Z,93822.88
2018-09-09T17:29:18.030Z,93826.83
2018-09-09T17:31:46.455Z,93829.30
2018-09-09T17:34:14.768Z,93825.81
2018-09-09T17:36:42.968Z,93833.66
2018-09-09T17:39:11.678Z,93832.48
2018-09-09T17:41:40.501Z,93839.54
2018-09-09T17:44:08.760Z,93843.27
2018-09-09T17:46:37.012Z,93842.89
2018-09-09T17:49:05.696Z,93848.03
2018-09-09T17:51:33.878Z,93860.91
2018-09-09T17:54:02.167Z,93860.37
2018-09-09T17:56:30.351Z,93858.38
2018-09-09T17:58:58.494Z,93867.58
2018-09-09T18:01:26.799Z,93869.87
2018-09-09T18:03:54.958Z,93872.91
2018-09-09T18:06:23.132Z,93867.17
2018-09-09T18:08:51.392Z,93869.73
2018-09-09T18:11:19.840Z,93875.23
2018-09-09T18:13:48.033Z,93870.61
2018-09-09T18:16:16.468Z,93875.66
2018-09-09T18:18:44.728Z,93879.73
2018-09-09T18:21:13.051Z,93884.05
2018-09-09T18:23:41.267Z,93885.84
2018-09-09T18:26:09.614Z,93879.19
2018-09-09T18:28:37.783Z,93884.82
2018-09-09T18:31:06.157Z,93886.48
2018-09-09T18:33:34.506Z,93891.62
2018-09-09T18:36:02.623Z,93889.11
2018-09-09T18:38:30.946Z,93893.05
2018-09-09T18:40:59.364Z,93888.66
2018-09-09T18:43:27.620Z,93893.39
2018-09-09T18:45:56.629Z,93888.63
2018-09-09T18:48:25.093Z,93890.66
2018-09-09T18:50:53.342Z,93891.97
2018-09-09T18:53:21.512Z,93885.75
2018-09-09T18:55:49.668Z,93890.17
2018-09-09T18:58:18.021Z,93897.91
2018-09-09T19:00:46.386Z,93893.16
2018-09-09T19:03:14.565Z,93897.91
2018-09-09T19:05:42.652Z,93900.89
2018-09-09T19:08:10.729Z,93894.56
2018-09-09T19:10:39.129Z,93896.23
2018-09-09T19:13:07.694Z,93895.86
2018-09-09T19:15:36.082Z,93901.31
2018-09-09T19:18:04.532Z,93903.51
2018-09-09T19:20:33.137Z,93902.65
2018-09-09T19:23:01.460Z,93903.62
2018-09-09T19:25:29.558Z,93911.10
2018-09-09T19:27:57.776Z,93915.05
2018-09-09T19:30:26.091Z,93912.69
2018-09-09T19:32:54.320Z,93916.84
2018-09-09T19:35:22.531Z,93918.06
2018-09-09T19:37:50.869Z,93911.37
2018-09-09T19:40:19.139Z,93912.79
2018-09-09T19:42:47.311Z,93918.34
2018-09-09T19:45:15.683Z,93915.36
2018-09-09T19:47:43.979Z,93914.61
2018-09-09T19:50:12.220Z,93907.81
2018-09-09T19:52:40.549Z,93906.31
2018-09-09T19:55:08.709Z,93915.45
2018-09-09T19:57:36.871Z,93918.78
2018-09-09T20:00:05.299Z,93918.45
2018-09-09T20:02:33.535Z,93910.58
2018-09-09T20:05:01.658Z,93919.56
2018-09-09T20:07:29.720Z,93917.27
2018-09-09T20:09:57.869Z,93914.06
2018-09-09T20:12:26.076Z,93915.72
2018-09-09T20:14:54.514Z,93909.48
2018-09-09T20:17:22.595Z,93923.12
2018-09-09T20:19:50.735Z,93923.77
2018-09-09T20:22:18.911Z,93920.73
2018-09-09T20:24:47.107Z,93924.99
2018-09-09T20:27:15.296Z,93917.21
2018-09-09T20:29:44.559Z,93928.11
2018-09-09T20:32:12.716Z,93921.77
2018-09-09T20:34:40.751Z,93926.27
2018-09-09T20:37:08.887Z,93925.55
2018-09-09T20:39:37.231Z,93922.45
2018-09-09T20:42:05.821Z,93926.23
2018-09-09T20:44:33.975Z,93921.81
2018-09-09T20:49:22.997Z,93923.85
2018-09-09T20:51:51.102Z,93925.69
2018-09-09T20:54:19.350Z,93925.11
2018-09-09T20:56:47.443Z,93926.74
2018-09-09T20:59:16.600Z,93921.97
2018-09-09T21:01:44.692Z,93922.69
2018-09-09T21:04:12.748Z,93925.84
2018-09-09T21:06:40.918Z,93925.19
2018-09-09T21:09:10.372Z,93923.25
2018-09-09T21:11:38.447Z,93924.17
2018-09-09T21:14:06.752Z,93921.95
2018-09-09T21:16:34.842Z,93918.48
2018-09-09T21:19:02.998Z,93916.34
2018-09-09T21:21:31.243Z,93920.59
2018-09-09T21:23:59.506Z,93920.24
2018-09-09T21:26:27.578Z,93919.89
2018-09-09T21:28:55.706Z,93919.06
2018-09-09T21:31:23.754Z,93916.49
2018-09-09T21:33:51.720Z,93918.44
2018-09-09T21:36:19.786Z,93910.03
2018-09-09T21:38:47.902Z,93912.83
2018-09-09T21:41:16.032Z,93913.41
2018-09-09T21:43:44.081Z,93917.64
2018-09-09T21:46:12.188Z,93917.06
2018-09-09T21:48:40.364Z,93908.59
2018-09-09T21:51:08.548Z,93910.25
2018-09-09T21:53:36.739Z,93913.38
2018-09-09T21:56:04.774Z,93915.06
2018-09-09T21:58:32.851Z,93912.64
2018-09-09T22:01:07.357Z,93914.36
2018-09-09T22:03:35.417Z,93912.42
2018-09-09T22:06:03.484Z,93908.92
2018-09-09T22:08:31.509Z,93912.80
2018-09-09T22:10:59.615Z,93907.45
2018-09-09T22:13:27.671Z,93906.72
2018-09-09T22:15:55.740Z,93906.09
2018-09-09T22:18:23.819Z,93902.55
2018-09-09T22:20:51.894Z,93900.36
2018-09-09T22:23:19.848Z,93902.33
2018-09-09T22:25:47.930Z,93902.52
2018-09-09T22:28:16.076Z,93901.23
2018-09-09T22:30:44.143Z,93895.98
2018-09-09T22:33:12.162Z,93904.66
2018-09-09T22:35:40.186Z,93905.39
2018-09-09T22:38:08.188Z,93900.84
2018-09-09T22:40:36.257Z,93900.27
2018-09-09T22:43:04.580Z,93908.19
2018-09-09T22:45:32.695Z,93906.44
2018-09-09T22:48:00.742Z,93904.51
2018-09-09T22:50:28.890Z,93907.42
2018-09-09T22:52:56.902Z,93910.38
2018-09-09T22:55:24.859Z,93912.64
2018-09-09T22:57:53.431Z,93906.73
2018-09-09T23:00:22.500Z,93910.95
2018-09-09T23:02:50.559Z,93908.98
2018-09-09T23:05:18.665Z,93905.39
2018-09-09T23:07:46.740Z,93908.91
2018-09-09T23:10:14.891Z,93906.13
2018-09-09T23:12:42.950Z,93909.17
2018-09-09T23:15:11.151Z,93902.87
2018-09-09T23:17:39.263Z,93899.23
2018-09-09T23:20:07.631Z,93893.58
2018-09-09T23:22:35.952Z,93894.80
2018-09-09T23:25:04.159Z,93893.12
2018-09-09T23:27:32.168Z,93892.38
2018-09-09T23:30:00.387Z,93894.33
2018-09-09T23:32:28.587Z,93901.98
2018-09-09T23:34:56.652Z,93897.29
2018-09-09T23:37:24.791Z,93896.30
2018-09-09T23:39:52.894Z,93902.15
2018-09-09T23:42:20.962Z,93896.75
2018-09-09T23:44:49.169Z,93894.80
2018-09-09T23:47:17.146Z,93894.98
2018-09-09T23:49:45.234Z,93892.86
2018-09-09T23:52:13.254Z,93897.59
2018-09-09T23:54:41.425Z,93898.98
2018-09-09T23:57:09.475Z,93896.55
2018-09-09T23:59:37.741Z,93897.59
